Ravinia, South Dakota
Current Conditions -  °F | °C
As of 11:53 PM on Tuesday 21 Oct 2014 (Local Time) from KMHE Reporting Station
Clear Clear  
Wind Chill: 62°   Ceiling: Unl
Heat Index: 62°   Visibility: 10mi
Dew Point: 42°   Wind: 22mph
Humidity: 48%   Direction: 150°SSE
Pressure: 29.92"   Gusts: 30mph
Location:  43.14°N, 98.43°W
Report Text: KMHE 220453Z AUTO 15019G26KT 10SM CLR 17/06 A2992 RMK AO2 PK WND 16028/0424 SLP130 T01670056 $
Loading
Personal Weather Stations






























Interactive Weather Map
Tropical Storm Tracking
New forecast layout! Learn more

10-Day Weather Forecast

Advertisements
Track Severe Weather on mobile